sensor_id;sensor_type;location;lat;lon;timestamp;P1;durP1;ratioP1;P2;durP2;ratioP2
1977;SDS011;989;53.016;8.346;2023-05-10T00:00:42;10.43;;;7.60;;
1977;SDS011;989;53.016;8.346;2023-05-10T00:03:08;11.17;;;7.70;;
1977;SDS011;989;53.016;8.346;2023-05-10T00:05:34;12.90;;;7.77;;
1977;SDS011;989;53.016;8.346;2023-05-10T00:08:00;11.30;;;8.30;;
1977;SDS011;989;53.016;8.346;2023-05-10T00:10:26;10.60;;;8.30;;
1977;SDS011;989;53.016;8.346;2023-05-10T00:12:52;12.70;;;8.80;;
1977;SDS011;989;53.016;8.346;2023-05-10T00:15:18;13.60;;;8.00;;
1977;SDS011;989;53.016;8.346;2023-05-10T00:17:44;12.23;;;8.70;;
1977;SDS011;989;53.016;8.346;2023-05-10T00:20:11;11.53;;;8.53;;
1977;SDS011;989;53.016;8.346;2023-05-10T00:22:37;19.33;;;8.27;;
1977;SDS011;989;53.016;8.346;2023-05-10T00:25:03;11.53;;;8.40;;
1977;SDS011;989;53.016;8.346;2023-05-10T00:27:29;14.20;;;7.90;;
1977;SDS011;989;53.016;8.346;2023-05-10T00:29:55;11.30;;;7.60;;
1977;SDS011;989;53.016;8.346;2023-05-10T00:32:21;14.60;;;8.60;;
1977;SDS011;989;53.016;8.346;2023-05-10T00:34:48;11.57;;;7.17;;
1977;SDS011;989;53.016;8.346;2023-05-10T00:37:14;9.50;;;6.23;;
1977;SDS011;989;53.016;8.346;2023-05-10T00:39:40;8.20;;;5.80;;
1977;SDS011;989;53.016;8.346;2023-05-10T00:42:06;8.50;;;5.57;;
1977;SDS011;989;53.016;8.346;2023-05-10T00:44:32;7.03;;;5.20;;
1977;SDS011;989;53.016;8.346;2023-05-10T00:46:58;8.20;;;5.63;;
1977;SDS011;989;53.016;8.346;2023-05-10T00:49:24;8.00;;;5.47;;
1977;SDS011;989;53.016;8.346;2023-05-10T00:51:50;8.73;;;5.60;;
1977;SDS011;989;53.016;8.346;2023-05-10T00:54:16;6.93;;;5.10;;
1977;SDS011;989;53.016;8.346;2023-05-10T00:56:43;8.87;;;6.30;;
1977;SDS011;989;53.016;8.346;2023-05-10T00:59:17;11.40;;;6.27;;
1977;SDS011;989;53.016;8.346;2023-05-10T01:01:44;7.27;;;5.80;;
1977;SDS011;989;53.016;8.346;2023-05-10T01:04:11;10.00;;;6.10;;
1977;SDS011;989;53.016;8.346;2023-05-10T01:06:38;8.60;;;6.23;;
1977;SDS011;989;53.016;8.346;2023-05-10T01:09:04;8.33;;;6.10;;
1977;SDS011;989;53.016;8.346;2023-05-10T01:11:32;10.83;;;7.37;;
1977;SDS011;989;53.016;8.346;2023-05-10T01:13:59;12.60;;;7.87;;
1977;SDS011;989;53.016;8.346;2023-05-10T01:16:25;13.90;;;7.80;;
1977;SDS011;989;53.016;8.346;2023-05-10T01:18:52;8.90;;;5.60;;
1977;SDS011;989;53.016;8.346;2023-05-10T01:21:38;13.83;;;7.50;;
1977;SDS011;989;53.016;8.346;2023-05-10T01:24:33;10.70;;;7.00;;
1977;SDS011;989;53.016;8.346;2023-05-10T01:37:45;13.03;;;9.60;;
1977;SDS011;989;53.016;8.346;2023-05-10T01:40:29;13.47;;;8.80;;
1977;SDS011;989;53.016;8.346;2023-05-10T01:43:03;13.60;;;8.60;;
1977;SDS011;989;53.016;8.346;2023-05-10T01:45:32;12.80;;;7.87;;
1977;SDS011;989;53.016;8.346;2023-05-10T01:48:11;12.40;;;7.90;;
1977;SDS011;989;53.016;8.346;2023-05-10T01:50:39;11.40;;;7.90;;
1977;SDS011;989;53.016;8.346;2023-05-10T01:53:08;13.10;;;7.97;;
1977;SDS011;989;53.016;8.346;2023-05-10T01:55:39;15.60;;;9.30;;
1977;SDS011;989;53.016;8.346;2023-05-10T01:58:25;12.50;;;7.90;;
1977;SDS011;989;53.016;8.346;2023-05-10T02:00:57;15.27;;;9.77;;
1977;SDS011;989;53.016;8.346;2023-05-10T02:03:25;10.70;;;7.53;;
1977;SDS011;989;53.016;8.346;2023-05-10T02:05:52;13.87;;;8.50;;
1977;SDS011;989;53.016;8.346;2023-05-10T02:08:20;10.03;;;6.57;;
1977;SDS011;989;53.016;8.346;2023-05-10T02:10:46;10.70;;;7.00;;
1977;SDS011;989;53.016;8.346;2023-05-10T02:13:17;12.17;;;7.43;;
1977;SDS011;989;53.016;8.346;2023-05-10T02:15:44;13.17;;;8.20;;
1977;SDS011;989;53.016;8.346;2023-05-10T02:18:12;13.07;;;7.90;;
1977;SDS011;989;53.016;8.346;2023-05-10T02:20:40;16.17;;;9.23;;
1977;SDS011;989;53.016;8.346;2023-05-10T02:23:08;13.77;;;8.20;;
1977;SDS011;989;53.016;8.346;2023-05-10T02:25:35;12.03;;;7.60;;
1977;SDS011;989;53.016;8.346;2023-05-10T02:28:03;10.40;;;7.23;;
1977;SDS011;989;53.016;8.346;2023-05-10T02:30:31;15.73;;;8.10;;
1977;SDS011;989;53.016;8.346;2023-05-10T02:32:58;17.13;;;10.47;;
1977;SDS011;989;53.016;8.346;2023-05-10T02:35:26;16.40;;;9.93;;
1977;SDS011;989;53.016;8.346;2023-05-10T02:37:52;22.63;;;11.40;;
1977;SDS011;989;53.016;8.346;2023-05-10T02:40:19;19.27;;;11.50;;
1977;SDS011;989;53.016;8.346;2023-05-10T02:42:47;17.60;;;10.60;;
1977;SDS011;989;53.016;8.346;2023-05-10T02:45:18;22.53;;;12.53;;
1977;SDS011;989;53.016;8.346;2023-05-10T02:47:46;17.90;;;11.87;;
1977;SDS011;989;53.016;8.346;2023-05-10T02:50:12;22.90;;;13.03;;
1977;SDS011;989;53.016;8.346;2023-05-10T02:52:39;23.50;;;11.80;;
1977;SDS011;989;53.016;8.346;2023-05-10T02:55:14;24.30;;;12.50;;
1977;SDS011;989;53.016;8.346;2023-05-10T02:57:59;29.43;;;14.17;;
1977;SDS011;989;53.016;8.346;2023-05-10T03:00:26;22.23;;;12.20;;
1977;SDS011;989;53.016;8.346;2023-05-10T03:02:52;22.30;;;13.20;;
1977;SDS011;989;53.016;8.346;2023-05-10T03:05:18;20.70;;;13.33;;
1977;SDS011;989;53.016;8.346;2023-05-10T03:07:45;21.73;;;13.90;;
1977;SDS011;989;53.016;8.346;2023-05-10T03:10:11;24.10;;;13.70;;
1977;SDS011;989;53.016;8.346;2023-05-10T03:15:25;17.97;;;11.23;;
1977;SDS011;989;53.016;8.346;2023-05-10T03:20:47;21.23;;;10.33;;
1977;SDS011;989;53.016;8.346;2023-05-10T03:25:48;14.03;;;10.77;;
1977;SDS011;989;53.016;8.346;2023-05-10T03:28:15;17.80;;;10.63;;
1977;SDS011;989;53.016;8.346;2023-05-10T03:30:42;17.03;;;9.90;;
1977;SDS011;989;53.016;8.346;2023-05-10T03:33:09;15.73;;;11.20;;
1977;SDS011;989;53.016;8.346;2023-05-10T03:35:35;26.90;;;12.33;;
1977;SDS011;989;53.016;8.346;2023-05-10T03:38:01;19.40;;;10.30;;
1977;SDS011;989;53.016;8.346;2023-05-10T03:40:27;16.13;;;10.03;;
1977;SDS011;989;53.016;8.346;2023-05-10T03:42:56;22.23;;;14.30;;
1977;SDS011;989;53.016;8.346;2023-05-10T03:45:23;19.33;;;11.90;;
1977;SDS011;989;53.016;8.346;2023-05-10T03:47:49;17.87;;;12.30;;
1977;SDS011;989;53.016;8.346;2023-05-10T03:50:15;20.50;;;13.30;;
1977;SDS011;989;53.016;8.346;2023-05-10T03:52:42;19.30;;;12.50;;
1977;SDS011;989;53.016;8.346;2023-05-10T03:55:08;21.33;;;13.10;;
1977;SDS011;989;53.016;8.346;2023-05-10T03:57:34;20.50;;;12.20;;
1977;SDS011;989;53.016;8.346;2023-05-10T04:00:00;17.23;;;12.27;;
1977;SDS011;989;53.016;8.346;2023-05-10T04:02:27;23.30;;;13.50;;
1977;SDS011;989;53.016;8.346;2023-05-10T04:04:54;17.80;;;12.40;;
1977;SDS011;989;53.016;8.346;2023-05-10T04:07:21;17.53;;;12.07;;
1977;SDS011;989;53.016;8.346;2023-05-10T04:09:47;16.10;;;10.43;;
1977;SDS011;989;53.016;8.346;2023-05-10T04:12:13;25.63;;;12.17;;
1977;SDS011;989;53.016;8.346;2023-05-10T04:14:39;17.97;;;11.80;;
1977;SDS011;989;53.016;8.346;2023-05-10T04:17:05;20.13;;;13.73;;
1977;SDS011;989;53.016;8.346;2023-05-10T04:19:31;18.23;;;11.87;;
1977;SDS011;989;53.016;8.346;2023-05-10T04:21:58;21.90;;;13.73;;
1977;SDS011;989;53.016;8.346;2023-05-10T04:24:24;18.40;;;13.67;;
1977;SDS011;989;53.016;8.346;2023-05-10T04:26:50;26.20;;;13.03;;
1977;SDS011;989;53.016;8.346;2023-05-10T04:29:16;22.73;;;12.53;;
1977;SDS011;989;53.016;8.346;2023-05-10T04:31:42;19.27;;;11.80;;
1977;SDS011;989;53.016;8.346;2023-05-10T04:34:08;20.10;;;12.37;;
1977;SDS011;989;53.016;8.346;2023-05-10T04:36:34;19.93;;;12.37;;
1977;SDS011;989;53.016;8.346;2023-05-10T04:39:02;15.93;;;11.97;;
1977;SDS011;989;53.016;8.346;2023-05-10T04:41:28;20.50;;;11.80;;
1977;SDS011;989;53.016;8.346;2023-05-10T04:43:54;17.23;;;11.00;;
1977;SDS011;989;53.016;8.346;2023-05-10T04:46:21;16.03;;;8.73;;
1977;SDS011;989;53.016;8.346;2023-05-10T04:48:47;15.27;;;9.30;;
1977;SDS011;989;53.016;8.346;2023-05-10T04:51:13;14.93;;;8.27;;
1977;SDS011;989;53.016;8.346;2023-05-10T04:53:39;9.87;;;6.50;;
1977;SDS011;989;53.016;8.346;2023-05-10T04:56:05;8.87;;;5.70;;
1977;SDS011;989;53.016;8.346;2023-05-10T04:58:32;10.67;;;5.70;;
1977;SDS011;989;53.016;8.346;2023-05-10T05:01:04;8.53;;;5.33;;
1977;SDS011;989;53.016;8.346;2023-05-10T05:03:32;8.23;;;4.33;;
1977;SDS011;989;53.016;8.346;2023-05-10T05:05:58;8.90;;;3.90;;
1977;SDS011;989;53.016;8.346;2023-05-10T05:08:24;5.33;;;3.57;;
1977;SDS011;989;53.016;8.346;2023-05-10T05:10:51;8.30;;;4.50;;
1977;SDS011;989;53.016;8.346;2023-05-10T05:13:17;9.07;;;4.60;;
1977;SDS011;989;53.016;8.346;2023-05-10T05:15:43;12.20;;;4.30;;
1977;SDS011;989;53.016;8.346;2023-05-10T05:18:09;8.17;;;4.13;;
1977;SDS011;989;53.016;8.346;2023-05-10T05:20:35;6.53;;;3.87;;
1977;SDS011;989;53.016;8.346;2023-05-10T05:23:01;8.90;;;4.37;;
1977;SDS011;989;53.016;8.346;2023-05-10T05:25:27;7.80;;;3.67;;
1977;SDS011;989;53.016;8.346;2023-05-10T05:27:53;9.17;;;4.87;;
1977;SDS011;989;53.016;8.346;2023-05-10T05:30:19;9.00;;;4.43;;
1977;SDS011;989;53.016;8.346;2023-05-10T05:32:46;11.70;;;3.80;;
1977;SDS011;989;53.016;8.346;2023-05-10T05:35:12;9.50;;;4.87;;
1977;SDS011;989;53.016;8.346;2023-05-10T05:37:38;6.63;;;4.57;;
1977;SDS011;989;53.016;8.346;2023-05-10T05:40:04;10.97;;;5.67;;
1977;SDS011;989;53.016;8.346;2023-05-10T05:42:31;8.20;;;5.00;;
1977;SDS011;989;53.016;8.346;2023-05-10T05:44:58;9.57;;;4.93;;
1977;SDS011;989;53.016;8.346;2023-05-10T05:47:24;7.57;;;4.57;;
1977;SDS011;989;53.016;8.346;2023-05-10T05:49:51;7.27;;;3.90;;
1977;SDS011;989;53.016;8.346;2023-05-10T05:52:17;12.90;;;5.50;;
1977;SDS011;989;53.016;8.346;2023-05-10T05:54:43;13.57;;;5.27;;
1977;SDS011;989;53.016;8.346;2023-05-10T05:57:09;11.20;;;5.63;;
1977;SDS011;989;53.016;8.346;2023-05-10T05:59:35;12.43;;;6.10;;
1977;SDS011;989;53.016;8.346;2023-05-10T06:02:06;12.00;;;6.63;;
1977;SDS011;989;53.016;8.346;2023-05-10T06:04:33;13.23;;;7.10;;
1977;SDS011;989;53.016;8.346;2023-05-10T06:06:59;12.53;;;4.90;;
1977;SDS011;989;53.016;8.346;2023-05-10T06:09:25;13.77;;;6.43;;
1977;SDS011;989;53.016;8.346;2023-05-10T06:11:51;10.50;;;4.87;;
1977;SDS011;989;53.016;8.346;2023-05-10T06:14:17;14.33;;;5.57;;
1977;SDS011;989;53.016;8.346;2023-05-10T06:16:46;14.80;;;5.70;;
1977;SDS011;989;53.016;8.346;2023-05-10T06:19:12;13.10;;;5.27;;
1977;SDS011;989;53.016;8.346;2023-05-10T06:21:38;9.90;;;5.03;;
1977;SDS011;989;53.016;8.346;2023-05-10T06:24:04;15.67;;;5.60;;
1977;SDS011;989;53.016;8.346;2023-05-10T06:26:31;15.67;;;6.37;;
1977;SDS011;989;53.016;8.346;2023-05-10T06:28:58;10.13;;;4.40;;
1977;SDS011;989;53.016;8.346;2023-05-10T06:31:24;17.93;;;6.60;;
1977;SDS011;989;53.016;8.346;2023-05-10T06:33:50;9.70;;;3.80;;
1977;SDS011;989;53.016;8.346;2023-05-10T06:36:16;7.50;;;3.83;;
1977;SDS011;989;53.016;8.346;2023-05-10T06:38:42;7.53;;;4.47;;
1977;SDS011;989;53.016;8.346;2023-05-10T06:41:08;10.10;;;4.40;;
1977;SDS011;989;53.016;8.346;2023-05-10T06:43:34;5.70;;;3.00;;
1977;SDS011;989;53.016;8.346;2023-05-10T06:46:00;10.50;;;3.70;;
1977;SDS011;989;53.016;8.346;2023-05-10T06:48:26;7.37;;;3.70;;
1977;SDS011;989;53.016;8.346;2023-05-10T06:50:53;10.90;;;3.40;;
1977;SDS011;989;53.016;8.346;2023-05-10T06:53:19;10.43;;;3.30;;
1977;SDS011;989;53.016;8.346;2023-05-10T06:55:45;10.20;;;3.67;;
1977;SDS011;989;53.016;8.346;2023-05-10T06:58:11;8.67;;;3.27;;
1977;SDS011;989;53.016;8.346;2023-05-10T07:00:37;6.47;;;3.20;;
1977;SDS011;989;53.016;8.346;2023-05-10T07:03:05;9.23;;;3.43;;
1977;SDS011;989;53.016;8.346;2023-05-10T07:05:32;8.53;;;3.27;;
1977;SDS011;989;53.016;8.346;2023-05-10T07:07:58;8.73;;;3.30;;
1977;SDS011;989;53.016;8.346;2023-05-10T07:10:24;11.27;;;4.90;;
1977;SDS011;989;53.016;8.346;2023-05-10T07:12:50;6.97;;;3.53;;
1977;SDS011;989;53.016;8.346;2023-05-10T07:15:16;8.90;;;3.43;;
1977;SDS011;989;53.016;8.346;2023-05-10T07:17:42;5.80;;;2.70;;
1977;SDS011;989;53.016;8.346;2023-05-10T07:20:08;6.77;;;2.90;;
1977;SDS011;989;53.016;8.346;2023-05-10T07:22:34;4.70;;;3.03;;
1977;SDS011;989;53.016;8.346;2023-05-10T07:25:01;8.63;;;3.00;;
1977;SDS011;989;53.016;8.346;2023-05-10T07:27:27;7.93;;;3.20;;
1977;SDS011;989;53.016;8.346;2023-05-10T07:29:53;8.37;;;3.70;;
1977;SDS011;989;53.016;8.346;2023-05-10T07:32:19;7.13;;;3.80;;
1977;SDS011;989;53.016;8.346;2023-05-10T07:34:46;5.50;;;3.13;;
1977;SDS011;989;53.016;8.346;2023-05-10T07:37:12;4.90;;;3.43;;
1977;SDS011;989;53.016;8.346;2023-05-10T07:39:38;10.20;;;3.70;;
1977;SDS011;989;53.016;8.346;2023-05-10T07:42:04;6.70;;;2.93;;
1977;SDS011;989;53.016;8.346;2023-05-10T07:44:30;5.10;;;2.77;;
1977;SDS011;989;53.016;8.346;2023-05-10T07:46:56;7.20;;;2.67;;
1977;SDS011;989;53.016;8.346;2023-05-10T07:49:22;6.00;;;3.87;;
1977;SDS011;989;53.016;8.346;2023-05-10T07:51:49;11.43;;;2.93;;
1977;SDS011;989;53.016;8.346;2023-05-10T07:54:15;3.90;;;1.90;;
1977;SDS011;989;53.016;8.346;2023-05-10T07:56:41;7.57;;;2.60;;
1977;SDS011;989;53.016;8.346;2023-05-10T07:59:14;3.70;;;1.93;;
1977;SDS011;989;53.016;8.346;2023-05-10T08:01:42;3.97;;;1.90;;
1977;SDS011;989;53.016;8.346;2023-05-10T08:04:08;2.77;;;1.77;;
1977;SDS011;989;53.016;8.346;2023-05-10T08:06:34;2.57;;;1.10;;
1977;SDS011;989;53.016;8.346;2023-05-10T08:09:00;3.70;;;1.97;;
1977;SDS011;989;53.016;8.346;2023-05-10T08:11:26;2.80;;;1.50;;
1977;SDS011;989;53.016;8.346;2023-05-10T08:13:55;2.97;;;1.60;;
1977;SDS011;989;53.016;8.346;2023-05-10T08:16:21;2.50;;;1.40;;
1977;SDS011;989;53.016;8.346;2023-05-10T08:18:47;3.63;;;2.00;;
1977;SDS011;989;53.016;8.346;2023-05-10T08:21:14;4.97;;;1.90;;
1977;SDS011;989;53.016;8.346;2023-05-10T08:23:40;2.73;;;1.93;;
1977;SDS011;989;53.016;8.346;2023-05-10T08:26:08;2.90;;;1.60;;
1977;SDS011;989;53.016;8.346;2023-05-10T08:28:34;4.20;;;2.30;;
1977;SDS011;989;53.016;8.346;2023-05-10T08:31:00;3.27;;;1.60;;
1977;SDS011;989;53.016;8.346;2023-05-10T08:33:26;2.70;;;1.60;;
1977;SDS011;989;53.016;8.346;2023-05-10T08:35:52;14.13;;;2.80;;
1977;SDS011;989;53.016;8.346;2023-05-10T08:38:18;4.17;;;2.07;;
1977;SDS011;989;53.016;8.346;2023-05-10T08:40:45;5.57;;;2.00;;
1977;SDS011;989;53.016;8.346;2023-05-10T08:43:12;5.37;;;2.23;;
1977;SDS011;989;53.016;8.346;2023-05-10T08:45:42;3.83;;;1.67;;
1977;SDS011;989;53.016;8.346;2023-05-10T08:48:10;6.47;;;2.03;;
1977;SDS011;989;53.016;8.346;2023-05-10T08:50:37;3.17;;;2.10;;
1977;SDS011;989;53.016;8.346;2023-05-10T08:53:06;4.00;;;2.10;;
1977;SDS011;989;53.016;8.346;2023-05-10T08:55:36;3.70;;;2.00;;
1977;SDS011;989;53.016;8.346;2023-05-10T08:58:03;6.70;;;3.10;;
1977;SDS011;989;53.016;8.346;2023-05-10T09:00:30;4.97;;;2.40;;
1977;SDS011;989;53.016;8.346;2023-05-10T09:03:00;11.27;;;2.50;;
1977;SDS011;989;53.016;8.346;2023-05-10T09:05:27;4.37;;;1.63;;
1977;SDS011;989;53.016;8.346;2023-05-10T09:07:53;7.70;;;2.70;;
1977;SDS011;989;53.016;8.346;2023-05-10T09:10:19;4.00;;;2.73;;
1977;SDS011;989;53.016;8.346;2023-05-10T09:12:46;11.50;;;3.17;;
1977;SDS011;989;53.016;8.346;2023-05-10T09:15:16;5.53;;;2.13;;
1977;SDS011;989;53.016;8.346;2023-05-10T09:17:44;3.77;;;1.87;;
1977;SDS011;989;53.016;8.346;2023-05-10T09:20:11;4.53;;;2.30;;
1977;SDS011;989;53.016;8.346;2023-05-10T09:22:37;6.43;;;2.07;;
1977;SDS011;989;53.016;8.346;2023-05-10T09:25:04;4.80;;;1.90;;
1977;SDS011;989;53.016;8.346;2023-05-10T09:27:31;12.33;;;2.17;;
1977;SDS011;989;53.016;8.346;2023-05-10T09:29:57;4.50;;;1.97;;
1977;SDS011;989;53.016;8.346;2023-05-10T09:32:39;4.27;;;2.13;;
1977;SDS011;989;53.016;8.346;2023-05-10T09:35:10;6.17;;;2.33;;
1977;SDS011;989;53.016;8.346;2023-05-10T09:37:41;3.00;;;1.77;;
1977;SDS011;989;53.016;8.346;2023-05-10T09:40:12;3.50;;;2.03;;
1977;SDS011;989;53.016;8.346;2023-05-10T09:42:50;3.67;;;2.27;;
1977;SDS011;989;53.016;8.346;2023-05-10T09:45:18;4.13;;;1.97;;
1977;SDS011;989;53.016;8.346;2023-05-10T09:47:45;8.00;;;2.40;;
1977;SDS011;989;53.016;8.346;2023-05-10T09:50:11;3.67;;;1.80;;
1977;SDS011;989;53.016;8.346;2023-05-10T09:52:47;4.10;;;1.60;;
1977;SDS011;989;53.016;8.346;2023-05-10T09:55:20;3.80;;;1.90;;
1977;SDS011;989;53.016;8.346;2023-05-10T09:58:14;3.87;;;2.27;;
1977;SDS011;989;53.016;8.346;2023-05-10T10:00:41;2.57;;;1.50;;
1977;SDS011;989;53.016;8.346;2023-05-10T10:03:15;3.60;;;1.80;;
1977;SDS011;989;53.016;8.346;2023-05-10T10:05:42;2.67;;;1.40;;
1977;SDS011;989;53.016;8.346;2023-05-10T10:08:09;2.83;;;1.50;;
1977;SDS011;989;53.016;8.346;2023-05-10T10:10:36;4.90;;;1.77;;
1977;SDS011;989;53.016;8.346;2023-05-10T10:13:02;3.43;;;1.70;;
1977;SDS011;989;53.016;8.346;2023-05-10T10:15:29;4.07;;;2.53;;
1977;SDS011;989;53.016;8.346;2023-05-10T10:17:55;2.60;;;1.70;;
1977;SDS011;989;53.016;8.346;2023-05-10T10:20:22;1.60;;;0.90;;
1977;SDS011;989;53.016;8.346;2023-05-10T10:22:49;1.60;;;1.00;;
1977;SDS011;989;53.016;8.346;2023-05-10T10:25:15;2.07;;;1.17;;
1977;SDS011;989;53.016;8.346;2023-05-10T10:27:45;2.60;;;1.00;;
1977;SDS011;989;53.016;8.346;2023-05-10T10:36:06;2.53;;;0.90;;
1977;SDS011;989;53.016;8.346;2023-05-10T10:41:27;2.10;;;1.17;;
1977;SDS011;989;53.016;8.346;2023-05-10T10:44:38;2.10;;;0.83;;
1977;SDS011;989;53.016;8.346;2023-05-10T10:47:47;1.10;;;0.40;;
1977;SDS011;989;53.016;8.346;2023-05-10T10:50:57;1.00;;;0.40;;
1977;SDS011;989;53.016;8.346;2023-05-10T10:54:10;1.10;;;0.50;;
1977;SDS011;989;53.016;8.346;2023-05-10T10:57:17;1.97;;;0.57;;
1977;SDS011;989;53.016;8.346;2023-05-10T11:00:58;1.20;;;0.60;;
1977;SDS011;989;53.016;8.346;2023-05-10T11:07:17;1.20;;;0.50;;
1977;SDS011;989;53.016;8.346;2023-05-10T11:10:25;1.20;;;0.50;;
1977;SDS011;989;53.016;8.346;2023-05-10T11:13:34;1.27;;;0.60;;
1977;SDS011;989;53.016;8.346;2023-05-10T11:16:44;1.30;;;0.60;;
1977;SDS011;989;53.016;8.346;2023-05-10T11:20:09;1.40;;;0.50;;
1977;SDS011;989;53.016;8.346;2023-05-10T11:23:17;1.10;;;0.50;;
1977;SDS011;989;53.016;8.346;2023-05-10T11:26:30;1.20;;;0.60;;
1977;SDS011;989;53.016;8.346;2023-05-10T11:29:38;1.00;;;0.40;;
1977;SDS011;989;53.016;8.346;2023-05-10T11:32:44;1.20;;;0.80;;
1977;SDS011;989;53.016;8.346;2023-05-10T11:35:51;1.20;;;0.50;;
1977;SDS011;989;53.016;8.346;2023-05-10T11:38:58;1.60;;;0.77;;
1977;SDS011;989;53.016;8.346;2023-05-10T11:42:05;1.33;;;0.80;;
1977;SDS011;989;53.016;8.346;2023-05-10T11:45:14;1.87;;;0.70;;
1977;SDS011;989;53.016;8.346;2023-05-10T11:48:21;1.37;;;0.90;;
1977;SDS011;989;53.016;8.346;2023-05-10T11:51:29;1.30;;;0.70;;
1977;SDS011;989;53.016;8.346;2023-05-10T12:19:28;1.50;;;0.80;;
1977;SDS011;989;53.016;8.346;2023-05-10T12:22:52;2.03;;;0.97;;
1977;SDS011;989;53.016;8.346;2023-05-10T12:26:02;1.60;;;1.03;;
1977;SDS011;989;53.016;8.346;2023-05-10T12:29:13;1.20;;;0.73;;
1977;SDS011;989;53.016;8.346;2023-05-10T12:32:36;1.60;;;0.93;;
1977;SDS011;989;53.016;8.346;2023-05-10T12:39:00;2.80;;;1.70;;
1977;SDS011;989;53.016;8.346;2023-05-10T12:42:08;1.93;;;1.40;;
1977;SDS011;989;53.016;8.346;2023-05-10T12:45:17;2.70;;;1.90;;
1977;SDS011;989;53.016;8.346;2023-05-10T12:48:24;2.77;;;1.50;;
1977;SDS011;989;53.016;8.346;2023-05-10T12:51:30;3.33;;;2.13;;
1977;SDS011;989;53.016;8.346;2023-05-10T12:54:37;2.13;;;1.57;;
1977;SDS011;989;53.016;8.346;2023-05-10T12:57:44;4.73;;;2.60;;
1977;SDS011;989;53.016;8.346;2023-05-10T13:00:50;3.17;;;1.43;;
1977;SDS011;989;53.016;8.346;2023-05-10T13:03:57;3.83;;;2.20;;
1977;SDS011;989;53.016;8.346;2023-05-10T13:07:06;5.70;;;2.80;;
1977;SDS011;989;53.016;8.346;2023-05-10T13:10:13;2.50;;;1.67;;
1977;SDS011;989;53.016;8.346;2023-05-10T13:12:39;3.50;;;2.30;;
1977;SDS011;989;53.016;8.346;2023-05-10T13:15:05;2.50;;;1.60;;
1977;SDS011;989;53.016;8.346;2023-05-10T13:17:31;2.73;;;2.10;;
1977;SDS011;989;53.016;8.346;2023-05-10T13:19:58;1.90;;;1.50;;
1977;SDS011;989;53.016;8.346;2023-05-10T13:22:24;2.60;;;1.53;;
1977;SDS011;989;53.016;8.346;2023-05-10T13:24:50;4.60;;;1.90;;
1977;SDS011;989;53.016;8.346;2023-05-10T13:27:16;3.27;;;1.87;;
1977;SDS011;989;53.016;8.346;2023-05-10T13:29:42;2.50;;;1.40;;
1977;SDS011;989;53.016;8.346;2023-05-10T13:32:08;3.73;;;1.67;;
1977;SDS011;989;53.016;8.346;2023-05-10T13:34:34;2.40;;;1.60;;
1977;SDS011;989;53.016;8.346;2023-05-10T13:37:00;3.30;;;1.70;;
1977;SDS011;989;53.016;8.346;2023-05-10T13:39:26;2.63;;;1.63;;
1977;SDS011;989;53.016;8.346;2023-05-10T13:41:55;1.80;;;1.03;;
1977;SDS011;989;53.016;8.346;2023-05-10T13:44:21;1.70;;;1.07;;
1977;SDS011;989;53.016;8.346;2023-05-10T13:46:48;1.70;;;0.90;;
1977;SDS011;989;53.016;8.346;2023-05-10T13:49:14;2.97;;;1.00;;
1977;SDS011;989;53.016;8.346;2023-05-10T13:51:40;1.80;;;1.10;;
1977;SDS011;989;53.016;8.346;2023-05-10T13:54:07;1.70;;;1.10;;
1977;SDS011;989;53.016;8.346;2023-05-10T13:56:33;3.20;;;0.80;;
1977;SDS011;989;53.016;8.346;2023-05-10T13:58:59;1.40;;;0.77;;
1977;SDS011;989;53.016;8.346;2023-05-10T14:01:25;1.67;;;0.90;;
1977;SDS011;989;53.016;8.346;2023-05-10T14:03:51;1.77;;;0.80;;
1977;SDS011;989;53.016;8.346;2023-05-10T14:06:18;2.70;;;1.20;;
1977;SDS011;989;53.016;8.346;2023-05-10T14:08:44;1.50;;;0.80;;
1977;SDS011;989;53.016;8.346;2023-05-10T14:11:10;1.83;;;1.10;;
1977;SDS011;989;53.016;8.346;2023-05-10T14:13:36;2.13;;;1.37;;
1977;SDS011;989;53.016;8.346;2023-05-10T14:16:02;1.50;;;0.80;;
1977;SDS011;989;53.016;8.346;2023-05-10T14:18:29;1.30;;;0.70;;
1977;SDS011;989;53.016;8.346;2023-05-10T14:20:55;2.20;;;1.33;;
1977;SDS011;989;53.016;8.346;2023-05-10T14:23:22;3.00;;;1.03;;
1977;SDS011;989;53.016;8.346;2023-05-10T14:25:53;2.07;;;1.00;;
1977;SDS011;989;53.016;8.346;2023-05-10T14:28:20;3.03;;;1.13;;
1977;SDS011;989;53.016;8.346;2023-05-10T14:30:47;1.30;;;0.60;;
1977;SDS011;989;53.016;8.346;2023-05-10T14:33:13;1.83;;;1.00;;
1977;SDS011;989;53.016;8.346;2023-05-10T14:35:39;1.63;;;0.93;;
1977;SDS011;989;53.016;8.346;2023-05-10T14:38:06;1.73;;;1.10;;
1977;SDS011;989;53.016;8.346;2023-05-10T14:40:32;3.63;;;1.07;;
1977;SDS011;989;53.016;8.346;2023-05-10T14:42:58;1.77;;;0.90;;
1977;SDS011;989;53.016;8.346;2023-05-10T14:45:24;3.93;;;1.30;;
1977;SDS011;989;53.016;8.346;2023-05-10T14:47:50;2.00;;;1.30;;
1977;SDS011;989;53.016;8.346;2023-05-10T14:50:16;1.83;;;0.97;;
1977;SDS011;989;53.016;8.346;2023-05-10T14:52:43;1.80;;;0.70;;
1977;SDS011;989;53.016;8.346;2023-05-10T14:55:09;1.97;;;0.97;;
1977;SDS011;989;53.016;8.346;2023-05-10T14:57:35;1.80;;;1.03;;
1977;SDS011;989;53.016;8.346;2023-05-10T15:00:02;1.63;;;1.00;;
1977;SDS011;989;53.016;8.346;2023-05-10T15:02:30;1.70;;;0.90;;
1977;SDS011;989;53.016;8.346;2023-05-10T15:04:56;2.00;;;0.90;;
1977;SDS011;989;53.016;8.346;2023-05-10T15:07:23;1.97;;;1.00;;
1977;SDS011;989;53.016;8.346;2023-05-10T15:09:49;2.93;;;0.80;;
1977;SDS011;989;53.016;8.346;2023-05-10T15:12:16;1.63;;;0.83;;
1977;SDS011;989;53.016;8.346;2023-05-10T15:14:43;1.50;;;0.93;;
1977;SDS011;989;53.016;8.346;2023-05-10T15:17:09;8.73;;;1.37;;
1977;SDS011;989;53.016;8.346;2023-05-10T15:19:35;2.43;;;1.30;;
1977;SDS011;989;53.016;8.346;2023-05-10T15:22:02;2.40;;;1.40;;
1977;SDS011;989;53.016;8.346;2023-05-10T15:24:29;3.00;;;1.37;;
1977;SDS011;989;53.016;8.346;2023-05-10T15:26:55;5.53;;;1.93;;
1977;SDS011;989;53.016;8.346;2023-05-10T15:29:21;2.37;;;1.30;;
1977;SDS011;989;53.016;8.346;2023-05-10T15:31:48;3.10;;;1.33;;
1977;SDS011;989;53.016;8.346;2023-05-10T15:34:15;2.87;;;1.53;;
1977;SDS011;989;53.016;8.346;2023-05-10T15:36:41;2.67;;;1.27;;
1977;SDS011;989;53.016;8.346;2023-05-10T15:39:07;6.23;;;1.07;;
1977;SDS011;989;53.016;8.346;2023-05-10T15:41:34;3.23;;;1.40;;
1977;SDS011;989;53.016;8.346;2023-05-10T15:44:00;2.10;;;1.03;;
1977;SDS011;989;53.016;8.346;2023-05-10T15:46:27;2.33;;;1.10;;
1977;SDS011;989;53.016;8.346;2023-05-10T15:48:53;2.30;;;1.10;;
1977;SDS011;989;53.016;8.346;2023-05-10T15:51:19;1.83;;;1.00;;
1977;SDS011;989;53.016;8.346;2023-05-10T15:53:45;2.70;;;1.20;;
1977;SDS011;989;53.016;8.346;2023-05-10T15:56:12;2.20;;;1.17;;
1977;SDS011;989;53.016;8.346;2023-05-10T15:58:38;2.83;;;1.50;;
1977;SDS011;989;53.016;8.346;2023-05-10T16:01:04;1.90;;;1.07;;
1977;SDS011;989;53.016;8.346;2023-05-10T16:03:31;3.00;;;1.30;;
1977;SDS011;989;53.016;8.346;2023-05-10T16:05:57;2.20;;;1.10;;
1977;SDS011;989;53.016;8.346;2023-05-10T16:08:23;3.10;;;1.20;;
1977;SDS011;989;53.016;8.346;2023-05-10T16:10:50;2.50;;;1.10;;
1977;SDS011;989;53.016;8.346;2023-05-10T16:13:16;2.80;;;1.40;;
1977;SDS011;989;53.016;8.346;2023-05-10T16:15:42;2.70;;;1.40;;
1977;SDS011;989;53.016;8.346;2023-05-10T16:18:09;3.30;;;1.40;;
1977;SDS011;989;53.016;8.346;2023-05-10T16:20:35;2.37;;;1.10;;
1977;SDS011;989;53.016;8.346;2023-05-10T16:23:02;3.63;;;1.23;;
1977;SDS011;989;53.016;8.346;2023-05-10T16:25:29;5.80;;;1.67;;
1977;SDS011;989;53.016;8.346;2023-05-10T16:27:56;2.20;;;1.30;;
1977;SDS011;989;53.016;8.346;2023-05-10T16:30:23;2.70;;;1.40;;
1977;SDS011;989;53.016;8.346;2023-05-10T16:32:51;2.37;;;1.10;;
1977;SDS011;989;53.016;8.346;2023-05-10T16:35:17;4.03;;;1.30;;
1977;SDS011;989;53.016;8.346;2023-05-10T16:37:43;3.67;;;1.73;;
1977;SDS011;989;53.016;8.346;2023-05-10T16:40:10;4.50;;;1.30;;
1977;SDS011;989;53.016;8.346;2023-05-10T16:42:36;2.13;;;1.53;;
1977;SDS011;989;53.016;8.346;2023-05-10T16:45:02;1.80;;;0.93;;
1977;SDS011;989;53.016;8.346;2023-05-10T16:47:38;2.73;;;1.63;;